Garner, Iowa
Current Conditions -  °F | °C
As of 6:10 AM on Sunday 23 Nov 2014 (Local Time) from KFXY Reporting Station
Overcast Overcast  
Wind Chill: 50°   Ceiling: 500
Heat Index: 50°   Visibility: 7mi
Dew Point: 50°   Wind: 12mph
Humidity: 100%   Direction: 170°S
Pressure: 29.47"   Gusts: NA
Location:  43.1°N, 93.6°W
Report Text: KFXY 231210Z AUTO 17010KT 7SM OVC005 10/10 A2947 RMK AO2
Loading
Personal Weather Stations






























Interactive Weather Map New forecast layout! Learn more

10-Day Weather Forecast

Advertisements
Track Severe Weather on mobile